sensor_id;sensor_type;location;lat;lon;timestamp;P1;durP1;ratioP1;P2;durP2;ratioP2
9436;SDS011;4757;59.334;18.034;2022-09-17T00:01:06;0.50;;;0.50;;
9436;SDS011;4757;59.334;18.034;2022-09-17T00:03:35;0.63;;;0.50;;
9436;SDS011;4757;59.334;18.034;2022-09-17T00:06:03;0.53;;;0.53;;
9436;SDS011;4757;59.334;18.034;2022-09-17T00:08:35;0.60;;;0.60;;
9436;SDS011;4757;59.334;18.034;2022-09-17T00:11:15;0.60;;;0.60;;
9436;SDS011;4757;59.334;18.034;2022-09-17T00:13:46;0.67;;;0.67;;
9436;SDS011;4757;59.334;18.034;2022-09-17T00:16:21;0.60;;;0.60;;
9436;SDS011;4757;59.334;18.034;2022-09-17T00:18:58;0.60;;;0.60;;
9436;SDS011;4757;59.334;18.034;2022-09-17T00:21:27;0.50;;;0.50;;
9436;SDS011;4757;59.334;18.034;2022-09-17T00:23:55;0.60;;;0.60;;
9436;SDS011;4757;59.334;18.034;2022-09-17T00:26:27;0.73;;;0.70;;
9436;SDS011;4757;59.334;18.034;2022-09-17T00:28:55;1.00;;;0.90;;
9436;SDS011;4757;59.334;18.034;2022-09-17T00:31:23;0.70;;;0.70;;
9436;SDS011;4757;59.334;18.034;2022-09-17T00:33:51;0.60;;;0.60;;
9436;SDS011;4757;59.334;18.034;2022-09-17T00:36:19;0.83;;;0.60;;
9436;SDS011;4757;59.334;18.034;2022-09-17T00:38:47;1.17;;;0.70;;
9436;SDS011;4757;59.334;18.034;2022-09-17T00:41:19;0.70;;;0.70;;
9436;SDS011;4757;59.334;18.034;2022-09-17T00:43:50;1.60;;;0.80;;
9436;SDS011;4757;59.334;18.034;2022-09-17T00:46:38;1.03;;;0.50;;
9436;SDS011;4757;59.334;18.034;2022-09-17T00:51:48;1.07;;;0.90;;
9436;SDS011;4757;59.334;18.034;2022-09-17T00:54:37;0.97;;;0.57;;
9436;SDS011;4757;59.334;18.034;2022-09-17T00:57:08;0.80;;;0.80;;
9436;SDS011;4757;59.334;18.034;2022-09-17T00:59:35;2.40;;;0.63;;
9436;SDS011;4757;59.334;18.034;2022-09-17T01:02:02;0.50;;;0.50;;
9436;SDS011;4757;59.334;18.034;2022-09-17T01:04:30;1.20;;;0.70;;
9436;SDS011;4757;59.334;18.034;2022-09-17T01:07:06;2.93;;;1.33;;
9436;SDS011;4757;59.334;18.034;2022-09-17T01:09:50;2.10;;;1.00;;
9436;SDS011;4757;59.334;18.034;2022-09-17T01:15:42;0.60;;;0.60;;
9436;SDS011;4757;59.334;18.034;2022-09-17T01:21:23;1.70;;;1.13;;
9436;SDS011;4757;59.334;18.034;2022-09-17T01:27:09;0.53;;;0.53;;
9436;SDS011;4757;59.334;18.034;2022-09-17T01:32:43;0.60;;;0.60;;
9436;SDS011;4757;59.334;18.034;2022-09-17T01:40:35;2.90;;;0.70;;
9436;SDS011;4757;59.334;18.034;2022-09-17T01:47:26;0.60;;;0.60;;
9436;SDS011;4757;59.334;18.034;2022-09-17T01:49:44;0.60;;;0.60;;
9436;SDS011;4757;59.334;18.034;2022-09-17T01:52:12;2.07;;;0.90;;
9436;SDS011;4757;59.334;18.034;2022-09-17T01:54:42;1.20;;;1.10;;
9436;SDS011;4757;59.334;18.034;2022-09-17T02:04:59;0.70;;;0.70;;
9436;SDS011;4757;59.334;18.034;2022-09-17T02:07:37;2.10;;;0.60;;
9436;SDS011;4757;59.334;18.034;2022-09-17T02:10:10;0.60;;;0.60;;
9436;SDS011;4757;59.334;18.034;2022-09-17T02:12:48;0.70;;;0.70;;
9436;SDS011;4757;59.334;18.034;2022-09-17T02:15:23;1.23;;;0.87;;
9436;SDS011;4757;59.334;18.034;2022-09-17T02:18:19;1.77;;;0.70;;
9436;SDS011;4757;59.334;18.034;2022-09-17T02:22:06;0.63;;;0.63;;
9436;SDS011;4757;59.334;18.034;2022-09-17T02:29:52;1.07;;;0.90;;
9436;SDS011;4757;59.334;18.034;2022-09-17T02:32:19;2.30;;;0.80;;
9436;SDS011;4757;59.334;18.034;2022-09-17T02:34:46;1.60;;;0.80;;
9436;SDS011;4757;59.334;18.034;2022-09-17T02:37:13;1.77;;;0.67;;
9436;SDS011;4757;59.334;18.034;2022-09-17T02:39:43;1.43;;;1.13;;
9436;SDS011;4757;59.334;18.034;2022-09-17T02:42:43;0.70;;;0.70;;
9436;SDS011;4757;59.334;18.034;2022-09-17T02:51:34;1.00;;;0.77;;
9436;SDS011;4757;59.334;18.034;2022-09-17T02:56:56;0.70;;;0.70;;
9436;SDS011;4757;59.334;18.034;2022-09-17T02:59:30;0.70;;;0.70;;
9436;SDS011;4757;59.334;18.034;2022-09-17T03:03:05;2.23;;;0.80;;
9436;SDS011;4757;59.334;18.034;2022-09-17T03:05:09;0.80;;;0.80;;
9436;SDS011;4757;59.334;18.034;2022-09-17T03:07:37;1.57;;;0.83;;
9436;SDS011;4757;59.334;18.034;2022-09-17T03:10:04;1.20;;;0.80;;
9436;SDS011;4757;59.334;18.034;2022-09-17T03:12:32;0.63;;;0.63;;
9436;SDS011;4757;59.334;18.034;2022-09-17T03:15:00;0.60;;;0.60;;
9436;SDS011;4757;59.334;18.034;2022-09-17T03:17:27;2.07;;;0.80;;
9436;SDS011;4757;59.334;18.034;2022-09-17T03:19:54;0.80;;;0.80;;
9436;SDS011;4757;59.334;18.034;2022-09-17T03:22:20;1.73;;;0.80;;
9436;SDS011;4757;59.334;18.034;2022-09-17T03:24:47;2.00;;;0.80;;
9436;SDS011;4757;59.334;18.034;2022-09-17T03:27:15;0.60;;;0.60;;
9436;SDS011;4757;59.334;18.034;2022-09-17T03:29:42;0.77;;;0.63;;
9436;SDS011;4757;59.334;18.034;2022-09-17T03:32:09;2.27;;;1.03;;
9436;SDS011;4757;59.334;18.034;2022-09-17T03:34:36;0.70;;;0.70;;
9436;SDS011;4757;59.334;18.034;2022-09-17T03:37:03;0.60;;;0.60;;
9436;SDS011;4757;59.334;18.034;2022-09-17T03:39:30;0.60;;;0.60;;
9436;SDS011;4757;59.334;18.034;2022-09-17T03:41:57;1.10;;;0.77;;
9436;SDS011;4757;59.334;18.034;2022-09-17T03:44:24;2.83;;;0.80;;
9436;SDS011;4757;59.334;18.034;2022-09-17T03:46:51;0.70;;;0.70;;
9436;SDS011;4757;59.334;18.034;2022-09-17T03:49:18;1.40;;;1.30;;
9436;SDS011;4757;59.334;18.034;2022-09-17T03:51:45;0.63;;;0.63;;
9436;SDS011;4757;59.334;18.034;2022-09-17T03:54:12;0.70;;;0.70;;
9436;SDS011;4757;59.334;18.034;2022-09-17T03:56:39;0.60;;;0.60;;
9436;SDS011;4757;59.334;18.034;2022-09-17T03:59:06;0.60;;;0.60;;
9436;SDS011;4757;59.334;18.034;2022-09-17T04:01:33;1.10;;;0.97;;
9436;SDS011;4757;59.334;18.034;2022-09-17T04:04:02;0.70;;;0.70;;
9436;SDS011;4757;59.334;18.034;2022-09-17T04:06:29;1.43;;;0.60;;
9436;SDS011;4757;59.334;18.034;2022-09-17T04:08:56;1.43;;;0.70;;
9436;SDS011;4757;59.334;18.034;2022-09-17T04:11:23;0.60;;;0.60;;
9436;SDS011;4757;59.334;18.034;2022-09-17T04:13:50;0.70;;;0.63;;
9436;SDS011;4757;59.334;18.034;2022-09-17T04:16:17;1.80;;;0.70;;
9436;SDS011;4757;59.334;18.034;2022-09-17T04:18:44;0.60;;;0.60;;
9436;SDS011;4757;59.334;18.034;2022-09-17T04:21:11;0.50;;;0.50;;
9436;SDS011;4757;59.334;18.034;2022-09-17T04:23:38;1.40;;;0.50;;
9436;SDS011;4757;59.334;18.034;2022-09-17T04:26:05;0.60;;;0.60;;
9436;SDS011;4757;59.334;18.034;2022-09-17T04:28:32;0.60;;;0.60;;
9436;SDS011;4757;59.334;18.034;2022-09-17T04:30:59;0.83;;;0.80;;
9436;SDS011;4757;59.334;18.034;2022-09-17T04:33:26;0.93;;;0.80;;
9436;SDS011;4757;59.334;18.034;2022-09-17T04:35:53;0.60;;;0.60;;
9436;SDS011;4757;59.334;18.034;2022-09-17T04:38:20;0.60;;;0.60;;
9436;SDS011;4757;59.334;18.034;2022-09-17T04:40:47;3.03;;;0.50;;
9436;SDS011;4757;59.334;18.034;2022-09-17T04:43:15;0.80;;;0.77;;
9436;SDS011;4757;59.334;18.034;2022-09-17T04:45:45;0.70;;;0.70;;
9436;SDS011;4757;59.334;18.034;2022-09-17T04:48:13;0.70;;;0.70;;
9436;SDS011;4757;59.334;18.034;2022-09-17T04:50:40;0.67;;;0.67;;
9436;SDS011;4757;59.334;18.034;2022-09-17T04:53:07;0.60;;;0.60;;
9436;SDS011;4757;59.334;18.034;2022-09-17T04:55:34;0.57;;;0.57;;
9436;SDS011;4757;59.334;18.034;2022-09-17T04:58:01;1.13;;;1.03;;
9436;SDS011;4757;59.334;18.034;2022-09-17T05:00:28;0.60;;;0.60;;
9436;SDS011;4757;59.334;18.034;2022-09-17T05:02:55;0.80;;;0.80;;
9436;SDS011;4757;59.334;18.034;2022-09-17T05:05:22;0.70;;;0.70;;
9436;SDS011;4757;59.334;18.034;2022-09-17T05:07:50;0.40;;;0.40;;
9436;SDS011;4757;59.334;18.034;2022-09-17T05:10:18;0.67;;;0.63;;
9436;SDS011;4757;59.334;18.034;2022-09-17T05:12:55;1.80;;;0.53;;
9436;SDS011;4757;59.334;18.034;2022-09-17T05:15:22;0.40;;;0.40;;
9436;SDS011;4757;59.334;18.034;2022-09-17T05:17:51;2.00;;;0.70;;
9436;SDS011;4757;59.334;18.034;2022-09-17T05:20:18;1.47;;;0.90;;
9436;SDS011;4757;59.334;18.034;2022-09-17T05:22:49;0.63;;;0.63;;
9436;SDS011;4757;59.334;18.034;2022-09-17T05:25:18;0.60;;;0.60;;
9436;SDS011;4757;59.334;18.034;2022-09-17T05:27:49;1.70;;;0.60;;
9436;SDS011;4757;59.334;18.034;2022-09-17T05:30:17;0.60;;;0.60;;
9436;SDS011;4757;59.334;18.034;2022-09-17T05:32:45;1.30;;;0.90;;
9436;SDS011;4757;59.334;18.034;2022-09-17T05:35:12;0.63;;;0.63;;
9436;SDS011;4757;59.334;18.034;2022-09-17T05:37:39;0.63;;;0.60;;
9436;SDS011;4757;59.334;18.034;2022-09-17T05:40:06;1.13;;;0.87;;
9436;SDS011;4757;59.334;18.034;2022-09-17T05:42:34;0.60;;;0.50;;
9436;SDS011;4757;59.334;18.034;2022-09-17T05:45:02;0.60;;;0.60;;
9436;SDS011;4757;59.334;18.034;2022-09-17T05:47:30;0.80;;;0.70;;
9436;SDS011;4757;59.334;18.034;2022-09-17T05:49:57;1.73;;;0.70;;
9436;SDS011;4757;59.334;18.034;2022-09-17T05:52:27;0.73;;;0.60;;
9436;SDS011;4757;59.334;18.034;2022-09-17T05:54:55;0.50;;;0.50;;
9436;SDS011;4757;59.334;18.034;2022-09-17T05:57:22;0.70;;;0.70;;
9436;SDS011;4757;59.334;18.034;2022-09-17T05:59:49;0.70;;;0.70;;
9436;SDS011;4757;59.334;18.034;2022-09-17T06:02:16;0.70;;;0.70;;
9436;SDS011;4757;59.334;18.034;2022-09-17T06:04:44;0.50;;;0.50;;
9436;SDS011;4757;59.334;18.034;2022-09-17T06:07:11;0.60;;;0.60;;
9436;SDS011;4757;59.334;18.034;2022-09-17T06:09:38;1.60;;;0.70;;
9436;SDS011;4757;59.334;18.034;2022-09-17T06:12:09;1.20;;;0.80;;
9436;SDS011;4757;59.334;18.034;2022-09-17T06:14:35;0.60;;;0.60;;
9436;SDS011;4757;59.334;18.034;2022-09-17T06:17:02;1.27;;;0.80;;
9436;SDS011;4757;59.334;18.034;2022-09-17T06:19:30;1.23;;;0.57;;
9436;SDS011;4757;59.334;18.034;2022-09-17T06:21:57;0.60;;;0.60;;
9436;SDS011;4757;59.334;18.034;2022-09-17T06:24:24;2.10;;;0.97;;
9436;SDS011;4757;59.334;18.034;2022-09-17T06:26:51;2.10;;;0.87;;
9436;SDS011;4757;59.334;18.034;2022-09-17T06:29:19;2.00;;;0.63;;
9436;SDS011;4757;59.334;18.034;2022-09-17T06:31:46;0.60;;;0.60;;
9436;SDS011;4757;59.334;18.034;2022-09-17T06:34:15;0.67;;;0.63;;
9436;SDS011;4757;59.334;18.034;2022-09-17T06:36:42;0.60;;;0.60;;
9436;SDS011;4757;59.334;18.034;2022-09-17T06:39:09;0.60;;;0.60;;
9436;SDS011;4757;59.334;18.034;2022-09-17T06:41:37;0.93;;;0.60;;
9436;SDS011;4757;59.334;18.034;2022-09-17T06:44:04;0.70;;;0.70;;
9436;SDS011;4757;59.334;18.034;2022-09-17T06:46:31;2.20;;;0.93;;
9436;SDS011;4757;59.334;18.034;2022-09-17T06:48:58;0.53;;;0.53;;
9436;SDS011;4757;59.334;18.034;2022-09-17T06:51:25;0.60;;;0.60;;
9436;SDS011;4757;59.334;18.034;2022-09-17T06:53:52;0.73;;;0.60;;
9436;SDS011;4757;59.334;18.034;2022-09-17T06:56:19;0.70;;;0.70;;
9436;SDS011;4757;59.334;18.034;2022-09-17T06:58:46;0.70;;;0.70;;
9436;SDS011;4757;59.334;18.034;2022-09-17T07:01:14;1.17;;;0.77;;
9436;SDS011;4757;59.334;18.034;2022-09-17T07:03:41;1.33;;;0.60;;
9436;SDS011;4757;59.334;18.034;2022-09-17T07:06:09;0.80;;;0.80;;
9436;SDS011;4757;59.334;18.034;2022-09-17T07:08:37;1.90;;;0.70;;
9436;SDS011;4757;59.334;18.034;2022-09-17T07:11:07;1.57;;;1.00;;
9436;SDS011;4757;59.334;18.034;2022-09-17T07:13:34;1.20;;;1.10;;
9436;SDS011;4757;59.334;18.034;2022-09-17T07:16:02;0.70;;;0.70;;
9436;SDS011;4757;59.334;18.034;2022-09-17T07:18:30;1.33;;;0.80;;
9436;SDS011;4757;59.334;18.034;2022-09-17T07:21:02;1.00;;;0.70;;
9436;SDS011;4757;59.334;18.034;2022-09-17T07:23:31;2.67;;;0.90;;
9436;SDS011;4757;59.334;18.034;2022-09-17T07:26:01;1.00;;;0.97;;
9436;SDS011;4757;59.334;18.034;2022-09-17T07:28:30;1.47;;;1.10;;
9436;SDS011;4757;59.334;18.034;2022-09-17T07:30:58;3.20;;;0.90;;
9436;SDS011;4757;59.334;18.034;2022-09-17T07:33:30;0.67;;;0.67;;
9436;SDS011;4757;59.334;18.034;2022-09-17T07:36:00;1.37;;;0.70;;
9436;SDS011;4757;59.334;18.034;2022-09-17T07:38:28;0.70;;;0.70;;
9436;SDS011;4757;59.334;18.034;2022-09-17T07:41:03;0.80;;;0.70;;
9436;SDS011;4757;59.334;18.034;2022-09-17T07:43:33;0.70;;;0.70;;
9436;SDS011;4757;59.334;18.034;2022-09-17T07:46:02;2.00;;;1.10;;
9436;SDS011;4757;59.334;18.034;2022-09-17T07:48:30;2.57;;;1.07;;
9436;SDS011;4757;59.334;18.034;2022-09-17T07:50:57;1.50;;;0.70;;
9436;SDS011;4757;59.334;18.034;2022-09-17T07:53:25;0.80;;;0.80;;
9436;SDS011;4757;59.334;18.034;2022-09-17T07:55:53;0.80;;;0.80;;
9436;SDS011;4757;59.334;18.034;2022-09-17T07:58:33;0.80;;;0.80;;
9436;SDS011;4757;59.334;18.034;2022-09-17T08:01:08;1.83;;;1.07;;
9436;SDS011;4757;59.334;18.034;2022-09-17T08:03:37;0.80;;;0.80;;
9436;SDS011;4757;59.334;18.034;2022-09-17T08:06:12;0.83;;;0.83;;
9436;SDS011;4757;59.334;18.034;2022-09-17T08:08:41;0.97;;;0.97;;
9436;SDS011;4757;59.334;18.034;2022-09-17T08:11:09;1.63;;;1.00;;
9436;SDS011;4757;59.334;18.034;2022-09-17T08:13:37;0.70;;;0.70;;
9436;SDS011;4757;59.334;18.034;2022-09-17T08:16:06;1.17;;;0.90;;
9436;SDS011;4757;59.334;18.034;2022-09-17T08:18:35;0.70;;;0.70;;
9436;SDS011;4757;59.334;18.034;2022-09-17T08:21:03;1.00;;;0.97;;
9436;SDS011;4757;59.334;18.034;2022-09-17T08:23:34;0.60;;;0.60;;
9436;SDS011;4757;59.334;18.034;2022-09-17T08:26:02;0.80;;;0.80;;
9436;SDS011;4757;59.334;18.034;2022-09-17T08:28:31;1.30;;;0.87;;
9436;SDS011;4757;59.334;18.034;2022-09-17T08:31:00;0.97;;;0.90;;
9436;SDS011;4757;59.334;18.034;2022-09-17T08:33:32;1.07;;;1.00;;
9436;SDS011;4757;59.334;18.034;2022-09-17T08:36:01;1.20;;;0.47;;
9436;SDS011;4757;59.334;18.034;2022-09-17T08:38:30;0.70;;;0.70;;
9436;SDS011;4757;59.334;18.034;2022-09-17T08:43:49;3.93;;;0.90;;
9436;SDS011;4757;59.334;18.034;2022-09-17T08:46:34;0.80;;;0.80;;
9436;SDS011;4757;59.334;18.034;2022-09-17T08:55:29;1.03;;;0.97;;
9436;SDS011;4757;59.334;18.034;2022-09-17T09:06:45;1.50;;;0.83;;
9436;SDS011;4757;59.334;18.034;2022-09-17T09:09:17;0.80;;;0.70;;
9436;SDS011;4757;59.334;18.034;2022-09-17T09:11:46;2.37;;;1.10;;
9436;SDS011;4757;59.334;18.034;2022-09-17T09:14:20;0.60;;;0.60;;
9436;SDS011;4757;59.334;18.034;2022-09-17T09:16:53;1.00;;;0.90;;
9436;SDS011;4757;59.334;18.034;2022-09-17T09:19:22;0.93;;;0.93;;
9436;SDS011;4757;59.334;18.034;2022-09-17T09:24:56;2.90;;;1.70;;
9436;SDS011;4757;59.334;18.034;2022-09-17T09:30:07;1.10;;;1.00;;
9436;SDS011;4757;59.334;18.034;2022-09-17T09:35:29;0.80;;;0.80;;
9436;SDS011;4757;59.334;18.034;2022-09-17T09:57:36;0.73;;;0.73;;
9436;SDS011;4757;59.334;18.034;2022-09-17T10:00:26;1.23;;;1.13;;
9436;SDS011;4757;59.334;18.034;2022-09-17T10:03:40;1.33;;;0.97;;
9436;SDS011;4757;59.334;18.034;2022-09-17T10:08:27;0.90;;;0.90;;
9436;SDS011;4757;59.334;18.034;2022-09-17T10:11:15;0.80;;;0.80;;
9436;SDS011;4757;59.334;18.034;2022-09-17T10:13:47;1.17;;;0.97;;
9436;SDS011;4757;59.334;18.034;2022-09-17T10:16:18;1.13;;;0.80;;
9436;SDS011;4757;59.334;18.034;2022-09-17T10:21:30;1.20;;;0.90;;
9436;SDS011;4757;59.334;18.034;2022-09-17T10:24:00;1.27;;;1.07;;
9436;SDS011;4757;59.334;18.034;2022-09-17T10:26:30;1.20;;;1.10;;
9436;SDS011;4757;59.334;18.034;2022-09-17T10:29:01;0.90;;;0.90;;
9436;SDS011;4757;59.334;18.034;2022-09-17T10:31:50;0.90;;;0.80;;
9436;SDS011;4757;59.334;18.034;2022-09-17T10:36:53;0.90;;;0.90;;
9436;SDS011;4757;59.334;18.034;2022-09-17T10:42:14;0.90;;;0.90;;
9436;SDS011;4757;59.334;18.034;2022-09-17T10:44:51;1.10;;;1.00;;
9436;SDS011;4757;59.334;18.034;2022-09-17T10:47:28;2.10;;;1.00;;
9436;SDS011;4757;59.334;18.034;2022-09-17T10:50:03;1.00;;;0.90;;
9436;SDS011;4757;59.334;18.034;2022-09-17T10:52:37;1.90;;;1.10;;
9436;SDS011;4757;59.334;18.034;2022-09-17T10:58:39;2.60;;;1.33;;
9436;SDS011;4757;59.334;18.034;2022-09-17T11:09:31;1.53;;;1.43;;
9436;SDS011;4757;59.334;18.034;2022-09-17T11:12:46;1.13;;;1.00;;
9436;SDS011;4757;59.334;18.034;2022-09-17T11:32:30;1.00;;;1.00;;
9436;SDS011;4757;59.334;18.034;2022-09-17T11:35:20;1.20;;;1.10;;
9436;SDS011;4757;59.334;18.034;2022-09-17T11:40:58;1.73;;;1.33;;
9436;SDS011;4757;59.334;18.034;2022-09-17T11:44:23;0.97;;;0.97;;
9436;SDS011;4757;59.334;18.034;2022-09-17T11:49:38;0.70;;;0.70;;
9436;SDS011;4757;59.334;18.034;2022-09-17T11:54:53;2.33;;;0.80;;
9436;SDS011;4757;59.334;18.034;2022-09-17T11:57:26;2.87;;;2.00;;
9436;SDS011;4757;59.334;18.034;2022-09-17T12:00:05;0.90;;;0.90;;
9436;SDS011;4757;59.334;18.034;2022-09-17T12:03:03;0.80;;;0.80;;
9436;SDS011;4757;59.334;18.034;2022-09-17T12:05:41;1.50;;;1.40;;
9436;SDS011;4757;59.334;18.034;2022-09-17T12:08:23;2.80;;;1.30;;
9436;SDS011;4757;59.334;18.034;2022-09-17T12:11:06;1.17;;;1.07;;
9436;SDS011;4757;59.334;18.034;2022-09-17T12:13:39;1.17;;;0.90;;
9436;SDS011;4757;59.334;18.034;2022-09-17T12:21:50;1.00;;;0.97;;
9436;SDS011;4757;59.334;18.034;2022-09-17T12:27:03;2.07;;;0.90;;
9436;SDS011;4757;59.334;18.034;2022-09-17T12:29:35;2.10;;;1.00;;
9436;SDS011;4757;59.334;18.034;2022-09-17T12:32:32;1.80;;;1.00;;
9436;SDS011;4757;59.334;18.034;2022-09-17T12:35:30;1.20;;;1.10;;
9436;SDS011;4757;59.334;18.034;2022-09-17T12:39:13;1.10;;;1.00;;
9436;SDS011;4757;59.334;18.034;2022-09-17T12:47:33;1.07;;;1.00;;
9436;SDS011;4757;59.334;18.034;2022-09-17T12:50:45;0.70;;;0.70;;
9436;SDS011;4757;59.334;18.034;2022-09-17T12:53:21;4.80;;;1.57;;
9436;SDS011;4757;59.334;18.034;2022-09-17T13:01:57;7.00;;;1.00;;
9436;SDS011;4757;59.334;18.034;2022-09-17T13:10:32;2.17;;;1.97;;
9436;SDS011;4757;59.334;18.034;2022-09-17T13:15:56;5.00;;;3.00;;
9436;SDS011;4757;59.334;18.034;2022-09-17T13:21:42;2.10;;;0.90;;
9436;SDS011;4757;59.334;18.034;2022-09-17T13:24:19;1.00;;;1.00;;
9436;SDS011;4757;59.334;18.034;2022-09-17T13:26:54;1.67;;;1.23;;
9436;SDS011;4757;59.334;18.034;2022-09-17T13:42:54;2.37;;;1.17;;
9436;SDS011;4757;59.334;18.034;2022-09-17T13:45:24;1.10;;;1.00;;
9436;SDS011;4757;59.334;18.034;2022-09-17T13:47:59;2.83;;;1.50;;
9436;SDS011;4757;59.334;18.034;2022-09-17T13:50:39;1.13;;;1.03;;
9436;SDS011;4757;59.334;18.034;2022-09-17T13:55:50;1.20;;;1.10;;
9436;SDS011;4757;59.334;18.034;2022-09-17T14:00:55;2.73;;;1.83;;
9436;SDS011;4757;59.334;18.034;2022-09-17T14:05:54;1.17;;;1.10;;
9436;SDS011;4757;59.334;18.034;2022-09-17T14:08:29;2.07;;;1.80;;
9436;SDS011;4757;59.334;18.034;2022-09-17T14:16:32;0.90;;;0.90;;
9436;SDS011;4757;59.334;18.034;2022-09-17T14:27:18;1.80;;;1.47;;
9436;SDS011;4757;59.334;18.034;2022-09-17T14:35:42;2.20;;;1.00;;
9436;SDS011;4757;59.334;18.034;2022-09-17T14:41:02;1.37;;;1.27;;
9436;SDS011;4757;59.334;18.034;2022-09-17T14:43:37;2.73;;;1.90;;
9436;SDS011;4757;59.334;18.034;2022-09-17T14:48:51;2.63;;;1.63;;
9436;SDS011;4757;59.334;18.034;2022-09-17T14:53:46;10.07;;;8.20;;
9436;SDS011;4757;59.334;18.034;2022-09-17T14:56:38;3.13;;;2.23;;
9436;SDS011;4757;59.334;18.034;2022-09-17T14:59:59;1.50;;;1.40;;
9436;SDS011;4757;59.334;18.034;2022-09-17T15:02:26;3.37;;;2.60;;
9436;SDS011;4757;59.334;18.034;2022-09-17T15:04:53;2.60;;;1.50;;
9436;SDS011;4757;59.334;18.034;2022-09-17T15:07:20;1.03;;;1.00;;
9436;SDS011;4757;59.334;18.034;2022-09-17T15:09:48;1.83;;;1.60;;
9436;SDS011;4757;59.334;18.034;2022-09-17T15:12:22;3.60;;;2.87;;
9436;SDS011;4757;59.334;18.034;2022-09-17T15:14:53;2.63;;;1.70;;
9436;SDS011;4757;59.334;18.034;2022-09-17T15:17:22;4.00;;;1.93;;
9436;SDS011;4757;59.334;18.034;2022-09-17T15:19:50;1.50;;;1.00;;
9436;SDS011;4757;59.334;18.034;2022-09-17T15:22:25;1.17;;;0.97;;
9436;SDS011;4757;59.334;18.034;2022-09-17T15:25:06;1.50;;;1.40;;
9436;SDS011;4757;59.334;18.034;2022-09-17T15:27:39;2.33;;;1.60;;
9436;SDS011;4757;59.334;18.034;2022-09-17T15:32:47;2.40;;;1.80;;
9436;SDS011;4757;59.334;18.034;2022-09-17T15:37:56;1.77;;;1.43;;
9436;SDS011;4757;59.334;18.034;2022-09-17T15:40:48;3.30;;;1.67;;
9436;SDS011;4757;59.334;18.034;2022-09-17T15:43:27;3.10;;;1.60;;
9436;SDS011;4757;59.334;18.034;2022-09-17T15:45:56;1.30;;;1.20;;
9436;SDS011;4757;59.334;18.034;2022-09-17T15:48:40;1.40;;;1.20;;
9436;SDS011;4757;59.334;18.034;2022-09-17T15:51:15;1.47;;;1.37;;
9436;SDS011;4757;59.334;18.034;2022-09-17T15:53:58;1.97;;;1.87;;
9436;SDS011;4757;59.334;18.034;2022-09-17T15:56:27;1.93;;;1.60;;
9436;SDS011;4757;59.334;18.034;2022-09-17T16:06:55;3.10;;;1.93;;
9436;SDS011;4757;59.334;18.034;2022-09-17T16:09:40;2.17;;;1.97;;
9436;SDS011;4757;59.334;18.034;2022-09-17T16:12:13;1.90;;;1.30;;
9436;SDS011;4757;59.334;18.034;2022-09-17T16:14:46;2.47;;;1.30;;
9436;SDS011;4757;59.334;18.034;2022-09-17T16:17:19;1.37;;;1.20;;
9436;SDS011;4757;59.334;18.034;2022-09-17T16:19:50;2.53;;;1.50;;
9436;SDS011;4757;59.334;18.034;2022-09-17T16:22:17;1.40;;;1.30;;
9436;SDS011;4757;59.334;18.034;2022-09-17T16:24:44;1.70;;;1.50;;
9436;SDS011;4757;59.334;18.034;2022-09-17T16:27:18;2.00;;;1.80;;
9436;SDS011;4757;59.334;18.034;2022-09-17T16:29:49;3.37;;;1.50;;
9436;SDS011;4757;59.334;18.034;2022-09-17T16:32:20;1.90;;;1.70;;
9436;SDS011;4757;59.334;18.034;2022-09-17T16:34:47;2.87;;;1.93;;
9436;SDS011;4757;59.334;18.034;2022-09-17T16:37:14;1.97;;;1.70;;
9436;SDS011;4757;59.334;18.034;2022-09-17T16:39:41;3.03;;;1.60;;
9436;SDS011;4757;59.334;18.034;2022-09-17T16:42:08;1.70;;;1.33;;
9436;SDS011;4757;59.334;18.034;2022-09-17T16:44:35;3.60;;;2.20;;
9436;SDS011;4757;59.334;18.034;2022-09-17T16:47:02;3.00;;;2.73;;
9436;SDS011;4757;59.334;18.034;2022-09-17T16:49:30;1.93;;;1.67;;
9436;SDS011;4757;59.334;18.034;2022-09-17T16:51:57;1.97;;;1.70;;
9436;SDS011;4757;59.334;18.034;2022-09-17T16:54:24;2.23;;;1.70;;
9436;SDS011;4757;59.334;18.034;2022-09-17T16:56:51;2.03;;;1.83;;
9436;SDS011;4757;59.334;18.034;2022-09-17T16:59:18;1.50;;;1.40;;
9436;SDS011;4757;59.334;18.034;2022-09-17T17:01:45;2.97;;;2.00;;
9436;SDS011;4757;59.334;18.034;2022-09-17T17:04:13;2.87;;;2.27;;
9436;SDS011;4757;59.334;18.034;2022-09-17T17:06:41;3.90;;;1.73;;
9436;SDS011;4757;59.334;18.034;2022-09-17T17:09:08;2.80;;;2.10;;
9436;SDS011;4757;59.334;18.034;2022-09-17T17:11:37;1.70;;;1.60;;
9436;SDS011;4757;59.334;18.034;2022-09-17T17:14:04;2.03;;;1.50;;
9436;SDS011;4757;59.334;18.034;2022-09-17T17:16:35;2.93;;;1.30;;
9436;SDS011;4757;59.334;18.034;2022-09-17T17:19:03;2.10;;;1.67;;
9436;SDS011;4757;59.334;18.034;2022-09-17T17:21:30;2.13;;;1.80;;
9436;SDS011;4757;59.334;18.034;2022-09-17T17:23:57;2.27;;;2.07;;
9436;SDS011;4757;59.334;18.034;2022-09-17T17:26:24;2.93;;;1.90;;
9436;SDS011;4757;59.334;18.034;2022-09-17T17:28:51;3.17;;;2.13;;
9436;SDS011;4757;59.334;18.034;2022-09-17T17:31:18;2.73;;;1.97;;
9436;SDS011;4757;59.334;18.034;2022-09-17T17:33:45;3.17;;;2.27;;
9436;SDS011;4757;59.334;18.034;2022-09-17T17:36:12;3.87;;;2.30;;
9436;SDS011;4757;59.334;18.034;2022-09-17T17:38:39;2.43;;;2.20;;
9436;SDS011;4757;59.334;18.034;2022-09-17T17:41:08;2.70;;;2.50;;
9436;SDS011;4757;59.334;18.034;2022-09-17T17:43:37;2.90;;;2.30;;
9436;SDS011;4757;59.334;18.034;2022-09-17T17:46:05;3.30;;;2.80;;
9436;SDS011;4757;59.334;18.034;2022-09-17T17:48:33;4.97;;;2.43;;
9436;SDS011;4757;59.334;18.034;2022-09-17T17:51:04;2.60;;;2.40;;
9436;SDS011;4757;59.334;18.034;2022-09-17T17:53:33;2.43;;;2.13;;
9436;SDS011;4757;59.334;18.034;2022-09-17T17:56:02;3.33;;;2.30;;
9436;SDS011;4757;59.334;18.034;2022-09-17T17:58:32;3.20;;;2.10;;
9436;SDS011;4757;59.334;18.034;2022-09-17T18:01:07;2.63;;;1.90;;
9436;SDS011;4757;59.334;18.034;2022-09-17T18:03:39;2.50;;;2.27;;
9436;SDS011;4757;59.334;18.034;2022-09-17T18:06:06;2.83;;;2.37;;
9436;SDS011;4757;59.334;18.034;2022-09-17T18:08:35;4.43;;;3.17;;
9436;SDS011;4757;59.334;18.034;2022-09-17T18:11:03;7.10;;;5.20;;
9436;SDS011;4757;59.334;18.034;2022-09-17T18:13:34;10.07;;;7.53;;
9436;SDS011;4757;59.334;18.034;2022-09-17T18:16:03;4.00;;;3.53;;
9436;SDS011;4757;59.334;18.034;2022-09-17T18:18:33;3.33;;;2.03;;
9436;SDS011;4757;59.334;18.034;2022-09-17T18:21:08;4.33;;;3.50;;
9436;SDS011;4757;59.334;18.034;2022-09-17T18:23:38;4.70;;;2.50;;
9436;SDS011;4757;59.334;18.034;2022-09-17T18:26:07;3.37;;;2.50;;
9436;SDS011;4757;59.334;18.034;2022-09-17T18:29:03;5.07;;;2.30;;
9436;SDS011;4757;59.334;18.034;2022-09-17T18:31:33;1.63;;;1.53;;
9436;SDS011;4757;59.334;18.034;2022-09-17T18:34:05;3.83;;;2.33;;
9436;SDS011;4757;59.334;18.034;2022-09-17T18:36:35;5.07;;;2.43;;
9436;SDS011;4757;59.334;18.034;2022-09-17T18:39:05;3.40;;;2.90;;
9436;SDS011;4757;59.334;18.034;2022-09-17T18:41:53;6.63;;;5.23;;
9436;SDS011;4757;59.334;18.034;2022-09-17T18:44:20;8.80;;;4.83;;
9436;SDS011;4757;59.334;18.034;2022-09-17T18:46:47;6.07;;;4.53;;
9436;SDS011;4757;59.334;18.034;2022-09-17T18:49:16;3.47;;;2.23;;
9436;SDS011;4757;59.334;18.034;2022-09-17T18:51:43;3.13;;;1.60;;
9436;SDS011;4757;59.334;18.034;2022-09-17T18:54:11;5.00;;;4.43;;
9436;SDS011;4757;59.334;18.034;2022-09-17T18:56:38;3.40;;;2.40;;
9436;SDS011;4757;59.334;18.034;2022-09-17T18:59:07;1.30;;;1.20;;
9436;SDS011;4757;59.334;18.034;2022-09-17T19:01:34;3.17;;;2.10;;
9436;SDS011;4757;59.334;18.034;2022-09-17T19:04:01;3.43;;;1.30;;
9436;SDS011;4757;59.334;18.034;2022-09-17T19:06:29;1.30;;;1.20;;
9436;SDS011;4757;59.334;18.034;2022-09-17T19:09:00;1.30;;;1.20;;
9436;SDS011;4757;59.334;18.034;2022-09-17T19:11:29;3.00;;;1.77;;
9436;SDS011;4757;59.334;18.034;2022-09-17T19:13:56;3.67;;;1.63;;
9436;SDS011;4757;59.334;18.034;2022-09-17T19:16:23;4.20;;;1.40;;
9436;SDS011;4757;59.334;18.034;2022-09-17T19:18:50;2.13;;;1.50;;
9436;SDS011;4757;59.334;18.034;2022-09-17T19:21:18;1.40;;;1.30;;
9436;SDS011;4757;59.334;18.034;2022-09-17T19:23:48;1.67;;;1.10;;